FABL/BFN METAR and TAF weather

Enter ICAO airport designator
Station Type Date Time Source
FABL METAR 2021/03/09 10:00 UTC NOAA

FABL 091000Z 31014G26KT 280V350 9999 FEW040 28/13 Q1014 NOSIG


Station Type Date Time Source
FABL Decoded METAR 2021/03/09 10:00 UTC NOAA

Bloemfontein, Bloemfontein Airport, South Africa (FABL) 29-06S 026-18E 1400M
Mar 09, 2021 - 05:00 AM EST / 2021.03.09 1000 UTC
Wind: from the NW (310 degrees) at 16 MPH (14 KT) gusting to 30 MPH (26 KT) (direction variable):0
Visibility: greater than 7 mile(s):0
Sky conditions: mostly clear
Temperature: 82 F (28 C)
Dew Point: 55 F (13 C)
Relative Humidity: 39%
Pressure (altimeter): 29.94 in. Hg (1014 hPa)
ob: FABL 091000Z 31014G26KT 280V350 9999 FEW040 28/13 Q1014 NOSIG
cycle: 10

Station Type Date Time Source
FABL TAF 2021/03/09 12:03 UTC NOAA

TAF TAF FABL 091000Z 0912/1012 30015KT 9999 SCT070TCU TX31/0913Z TN11/1003Z PROB30
TEMPO 0912/0916 -TSRA FEW070CB
FM091800 26010KT CAVOK
BECMG 1000/1002 VRB03KT
BECMG 1008/1010 30015KT

Example: see airport list